createdAt,value
2022-12-03T00:00:12.882Z,29.40
2022-12-03T00:02:40.214Z,28.90
2022-12-03T00:05:06.893Z,26.88
2022-12-03T00:07:33.453Z,28.20
2022-12-03T00:10:00.264Z,29.58
2022-12-03T00:12:26.716Z,28.38
2022-12-03T00:14:53.424Z,28.52
2022-12-03T00:17:20.068Z,28.45
2022-12-03T00:19:46.493Z,26.85
2022-12-03T00:22:13.472Z,27.58
2022-12-03T00:24:39.895Z,26.58
2022-12-03T00:27:06.387Z,25.25
2022-12-03T00:29:32.877Z,23.23
2022-12-03T00:31:59.377Z,25.38
2022-12-03T00:34:25.841Z,26.90
2022-12-03T00:36:52.267Z,25.33
2022-12-03T00:39:18.720Z,25.17
2022-12-03T00:41:45.146Z,24.85
2022-12-03T00:44:12.133Z,29.25
2022-12-03T00:46:38.664Z,25.70
2022-12-03T00:49:05.954Z,24.92
2022-12-03T00:51:32.418Z,28.50
2022-12-03T00:53:58.828Z,26.27
2022-12-03T00:56:25.310Z,25.27
2022-12-03T00:58:51.839Z,22.98
2022-12-03T01:01:18.477Z,22.50
2022-12-03T01:03:45.107Z,23.50
2022-12-03T01:06:11.607Z,24.77
2022-12-03T01:08:38.025Z,23.58
2022-12-03T01:11:24.498Z,22.50
2022-12-03T01:13:51.011Z,22.52
2022-12-03T01:16:17.465Z,21.38
2022-12-03T01:18:46.215Z,24.08
2022-12-03T01:21:12.785Z,23.27
2022-12-03T01:23:39.355Z,22.48
2022-12-03T01:26:05.784Z,21.55
2022-12-03T01:28:32.486Z,24.80
2022-12-03T01:31:17.902Z,22.77
2022-12-03T01:33:44.380Z,21.00
2022-12-03T01:36:10.848Z,21.23
2022-12-03T01:38:37.290Z,20.20
2022-12-03T01:41:08.574Z,23.90
2022-12-03T01:43:37.991Z,22.02
2022-12-03T01:46:04.541Z,19.90
2022-12-03T01:48:32.923Z,22.98
2022-12-03T01:50:59.397Z,21.75
2022-12-03T01:53:25.990Z,21.25
2022-12-03T01:55:52.510Z,21.30
2022-12-03T01:58:21.212Z,20.60
2022-12-03T02:00:47.646Z,21.38
2022-12-03T02:03:17.049Z,21.45
2022-12-03T02:05:43.554Z,21.25
2022-12-03T02:08:28.482Z,19.33
2022-12-03T02:10:55.393Z,18.73
2022-12-03T02:13:22.023Z,19.55
2022-12-03T02:15:48.564Z,20.70
2022-12-03T02:18:15.155Z,21.75
2022-12-03T02:20:59.955Z,21.20
2022-12-03T02:23:32.384Z,19.52
2022-12-03T02:25:58.879Z,17.75
2022-12-03T02:28:25.348Z,20.95
2022-12-03T02:30:51.880Z,21.35
2022-12-03T02:33:18.379Z,21.13
2022-12-03T02:35:45.295Z,19.90
2022-12-03T02:38:14.235Z,19.95
2022-12-03T02:40:41.181Z,20.27
2022-12-03T02:43:07.784Z,21.88
2022-12-03T02:45:36.028Z,21.20
2022-12-03T02:48:05.302Z,19.83
2022-12-03T02:50:33.307Z,22.83
2022-12-03T02:53:01.396Z,22.33
2022-12-03T02:55:34.912Z,19.70
2022-12-03T02:58:04.139Z,20.25
2022-12-03T03:00:30.787Z,21.13
2022-12-03T03:02:57.404Z,19.92
2022-12-03T03:05:23.986Z,21.40
2022-12-03T03:07:50.954Z,20.02
2022-12-03T03:10:19.476Z,22.60
2022-12-03T03:12:45.975Z,19.45
2022-12-03T03:15:12.973Z,20.58
2022-12-03T03:17:40.190Z,22.63
2022-12-03T03:20:07.518Z,22.98
2022-12-03T03:22:34.709Z,24.55
2022-12-03T03:25:01.368Z,20.40
2022-12-03T03:27:28.197Z,22.58
2022-12-03T03:29:54.881Z,22.30
2022-12-03T03:32:21.364Z,25.20
2022-12-03T03:34:47.816Z,22.13
2022-12-03T03:37:14.278Z,25.70
2022-12-03T03:39:40.804Z,21.52
2022-12-03T03:42:07.401Z,22.20
2022-12-03T03:44:33.928Z,22.30
2022-12-03T03:47:00.481Z,23.05
2022-12-03T03:49:27.167Z,23.63
2022-12-03T03:51:53.734Z,22.90
2022-12-03T03:54:20.467Z,22.25
2022-12-03T03:56:46.920Z,24.27
2022-12-03T03:59:14.052Z,23.95
2022-12-03T04:01:40.553Z,23.65
2022-12-03T04:04:14.255Z,23.35
2022-12-03T04:06:40.770Z,23.42
2022-12-03T04:09:07.237Z,22.45
2022-12-03T04:11:52.228Z,24.65
2022-12-03T04:14:18.768Z,21.00
2022-12-03T04:16:45.284Z,21.88
2022-12-03T04:19:12.042Z,22.88
2022-12-03T04:21:57.102Z,23.98
2022-12-03T04:24:23.601Z,22.98
2022-12-03T04:27:08.733Z,21.42
2022-12-03T04:29:36.403Z,22.02
2022-12-03T04:32:21.449Z,20.38
2022-12-03T04:35:06.946Z,20.15
2022-12-03T04:37:33.445Z,20.80
2022-12-03T04:40:00.531Z,21.17
2022-12-03T04:42:27.086Z,22.58
2022-12-03T04:44:53.824Z,20.52
2022-12-03T04:47:21.430Z,22.80
2022-12-03T04:49:49.574Z,20.50
2022-12-03T04:52:16.904Z,21.77
2022-12-03T04:54:43.405Z,23.42
2022-12-03T04:57:09.951Z,21.45
2022-12-03T04:59:36.893Z,23.38
2022-12-03T05:02:04.078Z,22.92
2022-12-03T05:04:32.266Z,21.38
2022-12-03T05:06:58.856Z,21.38
2022-12-03T05:09:25.270Z,23.23
2022-12-03T05:11:51.830Z,20.98
2022-12-03T05:14:18.255Z,22.02
2022-12-03T05:16:44.869Z,23.15
2022-12-03T05:19:11.415Z,23.83
2022-12-03T05:21:37.941Z,22.60
2022-12-03T05:24:04.619Z,21.88
2022-12-03T05:26:31.132Z,23.48
2022-12-03T05:28:57.959Z,21.92
2022-12-03T05:31:24.589Z,20.50
2022-12-03T05:33:51.171Z,21.08
2022-12-03T05:36:17.673Z,23.40
2022-12-03T05:38:44.175Z,23.48
2022-12-03T05:41:29.526Z,23.38
2022-12-03T05:43:56.069Z,20.17
2022-12-03T05:46:22.993Z,23.23
2022-12-03T05:48:49.474Z,23.35
2022-12-03T05:51:15.972Z,24.48
2022-12-03T05:53:42.475Z,24.20
2022-12-03T05:56:09.012Z,20.48
2022-12-03T05:58:35.522Z,21.65
2022-12-03T06:01:02.167Z,21.27
2022-12-03T06:03:28.708Z,20.27
2022-12-03T06:05:55.247Z,22.85
2022-12-03T06:08:21.775Z,22.42
2022-12-03T06:10:48.365Z,21.45
2022-12-03T06:13:15.168Z,20.40
2022-12-03T06:15:44.047Z,20.75
2022-12-03T06:18:11.035Z,22.15
2022-12-03T06:20:37.930Z,25.40
2022-12-03T06:23:04.350Z,23.25
2022-12-03T06:25:30.803Z,20.48
2022-12-03T06:27:57.328Z,20.08
2022-12-03T06:30:23.794Z,23.65
2022-12-03T06:32:50.244Z,21.13
2022-12-03T06:35:16.776Z,22.67
2022-12-03T06:37:43.208Z,22.77
2022-12-03T06:40:09.904Z,23.63
2022-12-03T06:42:36.435Z,23.75
2022-12-03T06:45:03.423Z,22.50
2022-12-03T06:47:29.916Z,21.08
2022-12-03T06:49:56.378Z,19.95
2022-12-03T06:52:22.903Z,24.02
2022-12-03T06:54:49.362Z,21.27
2022-12-03T06:57:16.214Z,21.98
2022-12-03T06:59:42.747Z,22.02
2022-12-03T07:02:09.654Z,25.77
2022-12-03T07:04:36.193Z,22.92
2022-12-03T07:07:02.615Z,20.30
2022-12-03T07:09:29.327Z,22.25
2022-12-03T07:11:55.781Z,22.13
2022-12-03T07:14:22.302Z,22.55
2022-12-03T07:16:48.819Z,21.63
2022-12-03T07:19:15.722Z,24.13
2022-12-03T07:21:42.217Z,26.20
2022-12-03T07:24:08.787Z,25.83
2022-12-03T07:26:35.223Z,26.60
2022-12-03T07:29:01.696Z,23.17
2022-12-03T07:31:28.270Z,25.17
2022-12-03T07:33:54.823Z,26.35
2022-12-03T07:36:21.344Z,26.33
2022-12-03T07:38:47.983Z,27.05
2022-12-03T07:41:15.405Z,26.48
2022-12-03T07:43:41.837Z,24.52
2022-12-03T07:46:08.574Z,26.42
2022-12-03T07:48:35.152Z,22.98
2022-12-03T07:51:01.824Z,24.52
2022-12-03T07:53:28.248Z,26.17
2022-12-03T07:55:54.795Z,24.85
2022-12-03T07:58:21.278Z,25.00
2022-12-03T08:00:47.898Z,22.77
2022-12-03T08:03:14.385Z,25.70
2022-12-03T08:05:40.884Z,24.70
2022-12-03T08:08:07.386Z,25.40
2022-12-03T08:10:33.925Z,23.98
2022-12-03T08:13:00.352Z,25.95
2022-12-03T08:15:30.191Z,25.27
2022-12-03T08:20:29.527Z,25.38
2022-12-03T08:22:56.405Z,26.52
2022-12-03T08:25:22.815Z,27.10
2022-12-03T08:27:49.943Z,26.75
2022-12-03T08:30:17.271Z,26.38
2022-12-03T08:32:43.817Z,26.05
2022-12-03T08:35:23.856Z,30.90
2022-12-03T08:37:55.808Z,28.45
2022-12-03T08:40:26.355Z,36.63
2022-12-03T08:42:52.819Z,24.58
2022-12-03T08:45:39.700Z,26.92
2022-12-03T08:48:25.667Z,27.55
2022-12-03T08:50:53.079Z,27.05
2022-12-03T08:53:28.656Z,28.15
2022-12-03T08:55:56.491Z,23.35
2022-12-03T08:58:23.080Z,30.20
2022-12-03T09:01:02.275Z,29.38
2022-12-03T09:03:30.395Z,27.40
2022-12-03T09:05:56.856Z,25.80
2022-12-03T09:08:23.303Z,27.83
2022-12-03T09:10:49.727Z,28.92
2022-12-03T09:13:32.610Z,27.17
2022-12-03T09:15:59.134Z,27.50
2022-12-03T09:18:25.582Z,29.98
2022-12-03T09:20:52.045Z,27.95
2022-12-03T09:23:18.517Z,29.70
2022-12-03T09:25:45.037Z,27.05
2022-12-03T09:28:11.473Z,26.17
2022-12-03T09:30:38.045Z,25.33
2022-12-03T09:33:04.485Z,27.60
2022-12-03T09:35:32.620Z,28.27
2022-12-03T09:37:59.086Z,24.75
2022-12-03T09:40:25.553Z,27.52
2022-12-03T09:42:52.124Z,28.35
2022-12-03T09:45:18.957Z,26.67
2022-12-03T09:47:47.567Z,28.17
2022-12-03T09:50:15.222Z,29.92
2022-12-03T09:52:41.733Z,25.77
2022-12-03T09:55:13.898Z,28.00
2022-12-03T09:57:40.546Z,27.95
2022-12-03T10:00:14.567Z,26.05
2022-12-03T10:02:41.367Z,31.80
2022-12-03T10:05:08.360Z,28.33
2022-12-03T10:07:34.878Z,29.35
2022-12-03T10:10:01.450Z,26.73
2022-12-03T10:12:29.184Z,27.77
2022-12-03T10:14:55.829Z,28.40
2022-12-03T10:17:22.575Z,31.42
2022-12-03T10:19:49.099Z,27.92
2022-12-03T10:22:15.640Z,30.40
2022-12-03T10:24:42.585Z,28.80
2022-12-03T10:27:23.202Z,31.67
2022-12-03T10:29:58.969Z,31.45
2022-12-03T10:32:45.124Z,31.63
2022-12-03T10:35:20.060Z,26.63
2022-12-03T10:38:05.856Z,30.15
2022-12-03T10:40:33.685Z,26.63
2022-12-03T10:43:12.436Z,26.33
2022-12-03T10:45:38.949Z,27.60
2022-12-03T10:48:10.989Z,29.73
2022-12-03T10:50:38.017Z,32.22
2022-12-03T10:53:04.552Z,26.83
2022-12-03T10:55:36.392Z,24.73
2022-12-03T10:58:02.956Z,24.90
2022-12-03T11:00:29.502Z,25.48
2022-12-03T11:02:57.274Z,23.42
2022-12-03T11:05:29.640Z,24.20
2022-12-03T11:07:56.450Z,28.92
2022-12-03T11:10:23.046Z,28.42
2022-12-03T11:13:08.089Z,28.55
2022-12-03T11:15:44.751Z,27.02
2022-12-03T11:18:11.267Z,26.60
2022-12-03T11:20:46.581Z,28.48
2022-12-03T11:23:13.309Z,28.05
2022-12-03T11:25:50.435Z,27.92
2022-12-03T11:28:17.027Z,28.83
2022-12-03T11:30:59.100Z,26.80
2022-12-03T11:33:27.946Z,29.88
2022-12-03T11:36:03.766Z,25.73
2022-12-03T11:38:52.941Z,28.33
2022-12-03T11:41:27.617Z,27.88
2022-12-03T11:43:57.065Z,27.40
2022-12-03T11:46:38.173Z,27.10
2022-12-03T11:49:16.932Z,24.67
2022-12-03T11:51:43.969Z,25.77
2022-12-03T11:54:15.280Z,28.33
2022-12-03T11:56:44.576Z,28.58
2022-12-03T11:59:12.454Z,28.30
2022-12-03T12:01:40.381Z,27.75
2022-12-03T12:04:07.941Z,30.35
2022-12-03T12:06:44.290Z,29.98
2022-12-03T12:09:10.885Z,30.45
2022-12-03T12:11:40.448Z,28.30
2022-12-03T12:14:11.351Z,29.23
2022-12-03T12:16:41.299Z,29.17
2022-12-03T12:19:26.528Z,30.80
2022-12-03T12:21:53.255Z,30.90
2022-12-03T12:24:40.156Z,26.60
2022-12-03T12:27:08.766Z,27.17
2022-12-03T12:29:35.862Z,28.83
2022-12-03T12:32:07.826Z,27.38
2022-12-03T12:34:36.908Z,28.80
2022-12-03T12:37:03.882Z,29.50
2022-12-03T12:39:30.842Z,31.27
2022-12-03T12:41:57.630Z,31.67
2022-12-03T12:44:26.218Z,32.15
2022-12-03T12:46:53.935Z,28.77
2022-12-03T12:49:26.623Z,28.50
2022-12-03T12:51:53.664Z,30.88
2022-12-03T12:54:20.096Z,33.70
2022-12-03T12:56:49.818Z,25.85
2022-12-03T12:59:20.236Z,29.70
2022-12-03T13:01:48.164Z,28.88
2022-12-03T13:04:14.619Z,28.38
2022-12-03T13:06:41.214Z,28.45
2022-12-03T13:09:22.648Z,32.08
2022-12-03T13:11:53.867Z,27.75
2022-12-03T13:14:21.840Z,28.15
2022-12-03T13:16:49.347Z,29.38
2022-12-03T13:19:15.857Z,29.65
2022-12-03T13:21:45.549Z,31.38
2022-12-03T13:24:27.004Z,33.17
2022-12-03T13:26:53.477Z,31.63
2022-12-03T13:29:20.374Z,27.80
2022-12-03T13:31:50.502Z,30.92
2022-12-03T13:34:19.689Z,28.83
2022-12-03T13:36:49.319Z,30.65
2022-12-03T13:39:40.214Z,29.15
2022-12-03T13:42:35.773Z,30.48
2022-12-03T13:45:02.851Z,32.08
2022-12-03T13:47:29.258Z,30.48
2022-12-03T13:49:58.115Z,31.92
2022-12-03T13:52:25.362Z,33.15
2022-12-03T13:54:53.440Z,33.17
2022-12-03T13:57:21.978Z,30.98
2022-12-03T13:59:48.687Z,30.60
2022-12-03T14:02:15.350Z,30.52
2022-12-03T14:04:41.960Z,29.85
2022-12-03T14:07:08.466Z,30.33
2022-12-03T14:09:34.898Z,31.48
2022-12-03T14:12:20.023Z,32.40
2022-12-03T14:14:46.525Z,33.45
2022-12-03T14:17:13.089Z,32.35
2022-12-03T14:19:39.621Z,36.05
2022-12-03T14:22:08.033Z,33.78
2022-12-03T14:24:34.604Z,36.15
2022-12-03T14:27:01.025Z,37.00
2022-12-03T14:29:27.788Z,35.38
2022-12-03T14:31:54.283Z,36.53
2022-12-03T14:34:20.729Z,37.60
2022-12-03T14:36:47.194Z,37.25
2022-12-03T14:39:13.613Z,38.20
2022-12-03T14:41:58.613Z,35.90
2022-12-03T14:44:25.336Z,32.72
2022-12-03T14:46:56.836Z,33.03
2022-12-03T14:49:23.870Z,34.53
2022-12-03T14:51:50.357Z,35.22
2022-12-03T14:54:16.843Z,37.45
2022-12-03T14:56:43.266Z,36.45
2022-12-03T14:59:09.730Z,36.63
2022-12-03T15:01:36.512Z,36.95
2022-12-03T15:04:03.110Z,35.03
2022-12-03T15:06:29.544Z,39.13
2022-12-03T15:08:55.995Z,36.22
2022-12-03T15:11:22.469Z,37.72
2022-12-03T15:13:48.956Z,42.45
2022-12-03T15:16:15.461Z,43.33
2022-12-03T15:18:41.964Z,39.80
2022-12-03T15:21:08.464Z,38.75
2022-12-03T15:23:34.998Z,39.88
2022-12-03T15:26:01.582Z,41.03
2022-12-03T15:28:28.104Z,40.60
2022-12-03T15:30:54.752Z,46.28
2022-12-03T15:33:21.548Z,38.72
2022-12-03T15:35:48.056Z,49.15
2022-12-03T15:38:14.555Z,42.92
2022-12-03T15:40:41.052Z,43.22
2022-12-03T15:43:08.253Z,41.95
2022-12-03T15:45:34.889Z,41.97
2022-12-03T15:48:01.634Z,40.83
2022-12-03T15:50:28.375Z,41.88
2022-12-03T15:52:54.814Z,43.38
2022-12-03T15:55:21.380Z,42.45
2022-12-03T15:57:49.175Z,40.03
2022-12-03T16:00:16.605Z,41.60
2022-12-03T16:02:49.043Z,45.38
2022-12-03T16:05:18.923Z,42.42
2022-12-03T16:07:45.442Z,42.28
2022-12-03T16:10:12.195Z,44.03
2022-12-03T16:12:38.783Z,42.47
2022-12-03T16:15:05.709Z,45.45
2022-12-03T16:17:32.181Z,44.47
2022-12-03T16:19:58.707Z,43.65
2022-12-03T16:22:25.190Z,43.63
2022-12-03T16:24:51.667Z,41.50
2022-12-03T16:27:21.569Z,41.78
2022-12-03T16:29:50.570Z,44.27
2022-12-03T16:32:16.989Z,44.58
2022-12-03T16:34:43.465Z,44.80
2022-12-03T16:37:11.430Z,44.83
2022-12-03T16:39:46.791Z,44.35
2022-12-03T16:42:17.189Z,46.42
2022-12-03T16:45:02.563Z,45.53
2022-12-03T16:47:33.568Z,46.08
2022-12-03T16:50:01.202Z,45.90
2022-12-03T16:52:27.697Z,48.25
2022-12-03T16:54:54.193Z,52.17
2022-12-03T16:57:20.639Z,49.30
2022-12-03T16:59:47.168Z,53.20
2022-12-03T17:02:13.806Z,51.90
2022-12-03T17:04:40.672Z,47.72
2022-12-03T17:07:07.207Z,47.13
2022-12-03T17:09:33.651Z,45.22
2022-12-03T17:12:00.144Z,48.15
2022-12-03T17:14:32.874Z,49.35
2022-12-03T17:17:00.006Z,55.88
2022-12-03T17:19:26.441Z,52.95
2022-12-03T17:21:54.091Z,54.38
2022-12-03T17:24:21.395Z,54.63
2022-12-03T17:26:47.966Z,51.75
2022-12-03T17:29:14.384Z,47.70
2022-12-03T17:31:42.553Z,49.88
2022-12-03T17:34:09.289Z,55.08
2022-12-03T17:36:35.740Z,54.47
2022-12-03T17:39:02.257Z,56.80
2022-12-03T17:41:28.700Z,57.17
2022-12-03T17:43:55.151Z,53.13
2022-12-03T17:46:21.726Z,50.25
2022-12-03T17:48:48.196Z,53.22
2022-12-03T17:51:14.770Z,49.97
2022-12-03T17:53:41.288Z,53.13
2022-12-03T17:56:07.743Z,54.60
2022-12-03T17:58:34.749Z,51.25
2022-12-03T18:01:03.159Z,49.65
2022-12-03T18:03:30.163Z,51.25
2022-12-03T18:05:56.743Z,51.40
2022-12-03T18:08:23.330Z,53.55
2022-12-03T18:10:50.239Z,51.17
2022-12-03T18:13:16.763Z,52.15
2022-12-03T18:15:43.346Z,58.33
2022-12-03T18:18:10.173Z,55.40
2022-12-03T18:20:37.133Z,54.30
2022-12-03T18:23:03.922Z,52.67
2022-12-03T18:25:30.558Z,52.50
2022-12-03T18:27:57.058Z,53.00
2022-12-03T18:30:23.596Z,56.47
2022-12-03T18:32:50.671Z,56.03
2022-12-03T18:35:17.556Z,58.65
2022-12-03T18:37:44.072Z,54.05
2022-12-03T18:40:16.751Z,50.10
2022-12-03T18:42:48.026Z,56.70
2022-12-03T18:45:15.201Z,61.72
2022-12-03T18:47:41.877Z,55.33
2022-12-03T18:50:09.495Z,60.08
2022-12-03T18:52:36.016Z,59.83
2022-12-03T18:55:02.559Z,55.63
2022-12-03T18:57:29.035Z,54.85
2022-12-03T18:59:55.858Z,53.88
2022-12-03T19:05:09.363Z,49.42
2022-12-03T19:07:36.147Z,53.15
2022-12-03T19:10:03.117Z,58.45
2022-12-03T19:12:31.150Z,60.20
2022-12-03T19:14:57.716Z,58.47
2022-12-03T19:17:24.373Z,55.60
2022-12-03T19:19:50.784Z,54.00
2022-12-03T19:22:17.308Z,55.00
2022-12-03T19:24:43.836Z,52.38
2022-12-03T19:27:10.491Z,55.17
2022-12-03T19:29:36.937Z,54.78
2022-12-03T19:32:03.518Z,57.47
2022-12-03T19:34:30.057Z,51.83
2022-12-03T19:36:56.581Z,52.55
2022-12-03T19:39:23.900Z,54.28
2022-12-03T19:41:50.413Z,50.22
2022-12-03T19:44:17.945Z,49.15
2022-12-03T19:46:44.780Z,48.15
2022-12-03T19:49:11.352Z,45.47
2022-12-03T19:51:37.786Z,87.80
2022-12-03T19:54:05.111Z,48.08
2022-12-03T19:56:31.603Z,44.78
2022-12-03T19:58:58.651Z,44.72
2022-12-03T20:01:26.460Z,45.55
2022-12-03T20:03:54.192Z,44.60
2022-12-03T20:06:23.154Z,46.75
2022-12-03T20:08:50.063Z,47.97
2022-12-03T20:11:17.911Z,45.00
2022-12-03T20:13:45.004Z,44.50
2022-12-03T20:16:13.137Z,44.25
2022-12-03T20:18:40.817Z,43.00
2022-12-03T20:21:07.645Z,46.30
2022-12-03T20:23:34.211Z,38.00
2022-12-03T20:26:00.900Z,42.03
2022-12-03T20:28:28.131Z,45.92
2022-12-03T20:30:58.445Z,42.45
2022-12-03T20:33:25.308Z,41.47
2022-12-03T20:35:52.912Z,42.60
2022-12-03T20:38:19.718Z,44.40
2022-12-03T20:40:46.169Z,43.70
2022-12-03T20:43:12.591Z,46.28
2022-12-03T20:45:39.136Z,39.53
2022-12-03T20:48:05.635Z,40.20
2022-12-03T20:50:32.168Z,40.95
2022-12-03T20:53:23.111Z,40.55
2022-12-03T20:55:45.077Z,42.78
2022-12-03T20:58:11.848Z,39.85
2022-12-03T21:00:38.276Z,41.70
2022-12-03T21:03:05.290Z,43.53
2022-12-03T21:05:31.750Z,38.97
2022-12-03T21:07:58.319Z,40.03
2022-12-03T21:10:36.697Z,38.53
2022-12-03T21:13:03.239Z,40.20
2022-12-03T21:15:29.671Z,39.22
2022-12-03T21:17:56.258Z,42.05
2022-12-03T21:20:22.743Z,41.53
2022-12-03T21:22:49.681Z,44.45
2022-12-03T21:25:16.244Z,40.75
2022-12-03T21:27:42.730Z,43.88
2022-12-03T21:30:09.328Z,40.90
2022-12-03T21:32:35.800Z,42.95
2022-12-03T21:35:02.223Z,41.47
2022-12-03T21:37:28.750Z,41.25
2022-12-03T21:39:55.569Z,46.28
2022-12-03T21:42:35.285Z,42.78
2022-12-03T21:45:03.715Z,42.58
2022-12-03T21:47:36.514Z,43.08
2022-12-03T21:52:29.992Z,38.33
2022-12-03T21:54:56.838Z,39.42
2022-12-03T21:57:23.262Z,37.00
2022-12-03T21:59:49.759Z,39.72
2022-12-03T22:02:16.401Z,38.00
2022-12-03T22:04:43.118Z,40.60
2022-12-03T22:07:09.624Z,43.42
2022-12-03T22:09:36.145Z,41.40
2022-12-03T22:12:02.803Z,40.40
2022-12-03T22:14:29.740Z,38.45
2022-12-03T22:16:56.274Z,39.03
2022-12-03T22:19:23.436Z,40.83
2022-12-03T22:21:50.066Z,38.95
2022-12-03T22:24:18.280Z,42.90
2022-12-03T22:26:45.063Z,40.85
2022-12-03T22:29:11.795Z,37.60
2022-12-03T22:31:38.649Z,41.22
2022-12-03T22:34:05.229Z,40.50
2022-12-03T22:36:31.818Z,41.30
2022-12-03T22:38:58.254Z,39.03
2022-12-03T22:41:24.748Z,39.47
2022-12-03T22:43:51.241Z,38.45
2022-12-03T22:46:17.809Z,43.47
2022-12-03T22:48:45.986Z,39.40
2022-12-03T22:51:16.709Z,39.45
2022-12-03T22:53:43.382Z,37.67
2022-12-03T22:56:09.995Z,38.15
2022-12-03T22:58:37.391Z,35.15
2022-12-03T23:01:04.218Z,36.47
2022-12-03T23:03:30.883Z,35.78
2022-12-03T23:05:57.409Z,37.55
2022-12-03T23:08:23.967Z,37.78
2022-12-03T23:10:51.623Z,36.83
2022-12-03T23:13:19.163Z,37.60
2022-12-03T23:15:50.212Z,38.70
2022-12-03T23:18:17.698Z,42.40
2022-12-03T23:20:48.187Z,35.58
2022-12-03T23:23:15.106Z,38.72
2022-12-03T23:25:41.862Z,39.70
2022-12-03T23:28:09.087Z,38.38
2022-12-03T23:30:38.821Z,40.63
2022-12-03T23:33:05.838Z,37.33
2022-12-03T23:35:32.815Z,37.22
2022-12-03T23:37:59.462Z,36.88
2022-12-03T23:40:25.925Z,35.33
2022-12-03T23:42:52.523Z,34.38
2022-12-03T23:45:18.958Z,37.22
2022-12-03T23:47:45.456Z,36.63
2022-12-03T23:50:12.128Z,38.70
2022-12-03T23:52:38.782Z,35.47
2022-12-03T23:55:05.616Z,34.20
2022-12-03T23:57:32.052Z,31.48
2022-12-03T23:59:58.493Z,29.13
